createdAt,value
2022-08-26T00:00:20.579Z,17.28
2022-08-26T00:02:48.772Z,17.26
2022-08-26T00:05:17.458Z,17.25
2022-08-26T00:07:46.672Z,17.16
2022-08-26T00:10:18.394Z,17.14
2022-08-26T00:12:48.992Z,17.12
2022-08-26T00:15:20.239Z,17.13
2022-08-26T00:17:49.320Z,17.13
2022-08-26T00:20:20.593Z,17.11
2022-08-26T00:22:49.090Z,17.09
2022-08-26T00:25:18.518Z,17.12
2022-08-26T00:27:48.936Z,17.06
2022-08-26T00:30:22.814Z,17.11
2022-08-26T00:32:52.794Z,17.07
2022-08-26T00:35:22.507Z,17.02
2022-08-26T00:37:51.659Z,17.03
2022-08-26T00:40:24.159Z,17.04
2022-08-26T00:42:54.545Z,17.05
2022-08-26T00:45:23.276Z,17.05
2022-08-26T00:47:54.991Z,17.03
2022-08-26T00:50:28.147Z,17.00
2022-08-26T00:52:57.378Z,16.94
2022-08-26T00:55:37.872Z,16.88
2022-08-26T00:58:09.120Z,16.73
2022-08-26T01:00:37.659Z,16.91
2022-08-26T01:03:07.593Z,16.90
2022-08-26T01:05:41.704Z,16.86
2022-08-26T01:08:10.170Z,16.79
2022-08-26T01:10:38.635Z,16.76
2022-08-26T01:13:11.346Z,16.77
2022-08-26T01:15:45.426Z,16.75
2022-08-26T01:18:17.846Z,16.77
2022-08-26T01:20:57.723Z,16.77
2022-08-26T01:23:31.970Z,16.74
2022-08-26T01:26:05.608Z,16.64
2022-08-26T01:28:36.592Z,16.66
2022-08-26T01:31:07.079Z,16.55
2022-08-26T01:33:42.272Z,16.66
2022-08-26T01:36:11.265Z,16.57
2022-08-26T01:38:41.563Z,16.12
2022-08-26T01:41:16.125Z,16.52
2022-08-26T01:43:50.960Z,16.59
2022-08-26T01:46:20.139Z,16.51
2022-08-26T01:48:49.563Z,16.54
2022-08-26T01:51:24.518Z,16.40
2022-08-26T01:53:54.827Z,16.17
2022-08-26T01:56:23.884Z,16.47
2022-08-26T01:58:54.800Z,16.43
2022-08-26T02:01:24.684Z,16.45
2022-08-26T02:04:01.189Z,16.48
2022-08-26T02:06:29.778Z,16.35
2022-08-26T02:09:02.757Z,16.47
2022-08-26T02:11:32.669Z,16.42
2022-08-26T02:14:04.203Z,16.44
2022-08-26T02:16:36.234Z,16.04
2022-08-26T02:19:05.319Z,16.42
2022-08-26T02:21:36.797Z,16.43
2022-08-26T02:24:12.998Z,16.44
2022-08-26T02:36:28.954Z,16.24
2022-08-26T02:38:57.696Z,16.26
2022-08-26T02:41:27.659Z,16.20
2022-08-26T02:43:56.204Z,16.16
2022-08-26T02:46:30.023Z,16.22
2022-08-26T02:48:59.047Z,16.33
2022-08-26T02:51:27.431Z,16.35
2022-08-26T02:53:56.049Z,16.19
2022-08-26T02:56:24.622Z,16.24
2022-08-26T02:58:54.727Z,16.21
2022-08-26T03:01:25.256Z,16.16
2022-08-26T03:03:54.179Z,16.15
2022-08-26T03:06:22.731Z,16.19
2022-08-26T03:08:51.728Z,16.13
2022-08-26T03:11:21.025Z,16.23
2022-08-26T03:13:50.666Z,16.21
2022-08-26T03:16:20.852Z,16.14
2022-08-26T03:18:52.179Z,16.20
2022-08-26T03:21:21.577Z,16.25
2022-08-26T03:23:50.645Z,16.26
2022-08-26T03:26:19.224Z,16.24
2022-08-26T03:29:01.453Z,16.23
2022-08-26T03:31:32.580Z,16.21
2022-08-26T03:34:01.472Z,16.13
2022-08-26T03:36:31.454Z,16.16
2022-08-26T03:39:02.779Z,16.13
2022-08-26T03:41:32.815Z,16.03
2022-08-26T03:44:02.025Z,15.93
2022-08-26T03:46:34.331Z,15.99
2022-08-26T03:49:05.358Z,15.96
2022-08-26T03:51:34.282Z,15.98
2022-08-26T03:56:35.291Z,15.94
2022-08-26T03:59:04.234Z,15.86
2022-08-26T04:01:34.428Z,15.95
2022-08-26T04:04:03.269Z,15.87
2022-08-26T04:06:33.814Z,15.93
2022-08-26T04:09:25.843Z,15.97
2022-08-26T04:11:55.575Z,15.98
2022-08-26T04:14:27.371Z,15.99
2022-08-26T04:16:57.479Z,16.01
2022-08-26T04:19:27.065Z,16.06
2022-08-26T04:21:56.361Z,16.00
2022-08-26T04:24:26.764Z,16.01
2022-08-26T04:26:56.775Z,15.96
2022-08-26T04:29:27.292Z,15.96
2022-08-26T04:31:57.703Z,15.94
2022-08-26T04:34:28.719Z,16.01
2022-08-26T04:36:57.969Z,16.09
2022-08-26T04:39:28.135Z,15.98
2022-08-26T04:41:57.645Z,16.05
2022-08-26T04:44:28.666Z,16.03
2022-08-26T04:46:59.280Z,16.05
2022-08-26T04:49:29.014Z,16.08
2022-08-26T04:52:05.271Z,16.09
2022-08-26T04:54:33.950Z,16.22
2022-08-26T04:57:03.009Z,16.25
2022-08-26T04:59:34.065Z,16.28
2022-08-26T05:02:08.589Z,16.30
2022-08-26T05:04:38.858Z,16.27
2022-08-26T05:07:09.945Z,16.37
2022-08-26T05:09:40.941Z,16.36
2022-08-26T05:12:12.776Z,16.31
2022-08-26T05:14:42.188Z,16.42
2022-08-26T05:17:15.178Z,16.46
2022-08-26T05:19:44.270Z,16.57
2022-08-26T05:22:13.203Z,16.63
2022-08-26T05:24:42.337Z,16.61
2022-08-26T05:27:11.605Z,16.67
2022-08-26T05:29:41.047Z,16.78
2022-08-26T05:32:09.819Z,16.85
2022-08-26T05:34:41.287Z,16.88
2022-08-26T05:37:11.585Z,16.82
2022-08-26T05:39:43.521Z,16.92
2022-08-26T05:42:20.148Z,16.93
2022-08-26T05:44:56.042Z,17.02
2022-08-26T05:47:25.461Z,17.14
2022-08-26T05:49:56.338Z,17.21
2022-08-26T05:52:26.075Z,17.25
2022-08-26T05:54:55.317Z,17.21
2022-08-26T05:57:23.814Z,17.42
2022-08-26T05:59:53.164Z,17.46
2022-08-26T06:02:22.298Z,17.67
2022-08-26T06:04:51.503Z,17.76
2022-08-26T06:07:42.395Z,17.82
2022-08-26T06:10:31.669Z,17.95
2022-08-26T06:13:04.593Z,18.05
2022-08-26T06:15:45.922Z,18.21
2022-08-26T06:18:15.662Z,18.20
2022-08-26T06:20:57.302Z,18.41
2022-08-26T06:23:47.431Z,18.51
2022-08-26T06:26:17.341Z,18.66
2022-08-26T06:28:46.097Z,18.69
2022-08-26T06:31:16.029Z,18.86
2022-08-26T06:33:45.665Z,18.96
2022-08-26T06:36:19.537Z,19.06
2022-08-26T06:38:51.661Z,19.19
2022-08-26T06:41:22.794Z,19.16
2022-08-26T06:43:51.789Z,19.43
2022-08-26T06:46:26.329Z,19.57
2022-08-26T06:48:55.580Z,19.62
2022-08-26T06:51:43.565Z,19.32
2022-08-26T06:54:13.677Z,19.89
2022-08-26T06:56:49.693Z,20.05
2022-08-26T06:59:18.311Z,20.14
2022-08-26T07:01:48.056Z,20.37
2022-08-26T07:04:20.188Z,20.51
2022-08-26T07:06:53.546Z,20.58
2022-08-26T07:09:30.589Z,20.69
2022-08-26T07:11:59.769Z,20.79
2022-08-26T07:20:36.141Z,21.41
2022-08-26T07:23:07.846Z,21.49
2022-08-26T07:25:46.427Z,21.60
2022-08-26T07:28:16.700Z,21.70
2022-08-26T07:30:45.808Z,21.72
2022-08-26T07:33:15.023Z,21.70
2022-08-26T07:35:45.321Z,21.97
2022-08-26T07:38:14.906Z,22.07
2022-08-26T07:40:52.867Z,22.25
2022-08-26T07:43:22.919Z,22.41
2022-08-26T07:46:05.030Z,22.56
2022-08-26T07:48:54.164Z,22.69
2022-08-26T07:51:24.130Z,22.85
2022-08-26T07:53:54.522Z,22.99
2022-08-26T07:56:26.230Z,23.15
2022-08-26T07:58:56.275Z,23.25
2022-08-26T08:01:26.973Z,23.30
2022-08-26T08:03:58.259Z,23.27
2022-08-26T08:06:29.842Z,23.25
2022-08-26T08:09:02.989Z,23.41
2022-08-26T08:11:36.389Z,23.62
2022-08-26T08:14:08.493Z,23.51
2022-08-26T08:16:46.081Z,23.67
2022-08-26T08:19:19.615Z,23.73
2022-08-26T08:21:50.963Z,23.65
2022-08-26T08:24:20.373Z,23.83
2022-08-26T08:26:52.393Z,23.94
2022-08-26T08:29:25.186Z,23.90
2022-08-26T08:31:56.739Z,24.11
2022-08-26T08:34:37.796Z,24.11
2022-08-26T08:37:10.630Z,24.39
2022-08-26T08:39:55.648Z,24.57
2022-08-26T08:45:38.209Z,24.89
2022-08-26T08:48:16.215Z,24.97
2022-08-26T08:50:47.541Z,25.12
2022-08-26T08:53:20.775Z,25.27
2022-08-26T08:56:04.139Z,25.40
2022-08-26T08:58:53.828Z,25.59
2022-08-26T09:01:40.152Z,25.75
2022-08-26T09:04:20.136Z,25.89
2022-08-26T09:06:51.794Z,25.99
2022-08-26T09:09:24.415Z,26.09
2022-08-26T09:11:54.870Z,26.16
2022-08-26T09:14:26.699Z,26.31
2022-08-26T09:17:04.697Z,26.54
2022-08-26T09:19:39.972Z,26.53
2022-08-26T09:22:09.994Z,26.47
2022-08-26T09:24:48.356Z,26.17
2022-08-26T09:27:38.884Z,25.99
2022-08-26T09:32:59.766Z,26.38
2022-08-26T09:35:32.110Z,26.71
2022-08-26T09:38:00.915Z,27.08
2022-08-26T09:40:34.638Z,27.11
2022-08-26T09:43:14.185Z,27.26
2022-08-26T09:45:50.690Z,27.68
2022-08-26T09:48:36.084Z,27.91
2022-08-26T09:51:29.470Z,27.91
2022-08-26T09:54:11.790Z,28.33
2022-08-26T09:56:53.039Z,28.60
2022-08-26T10:02:34.137Z,30.71
2022-08-26T10:20:33.208Z,30.06
2022-08-26T10:23:04.882Z,29.19
2022-08-26T10:25:44.302Z,29.23
2022-08-26T10:28:20.000Z,28.87
2022-08-26T10:31:00.121Z,28.67
2022-08-26T10:33:29.464Z,28.70
2022-08-26T10:36:01.028Z,28.90
2022-08-26T10:38:35.111Z,29.37
2022-08-26T10:41:09.711Z,29.63
2022-08-26T10:43:43.014Z,29.58
2022-08-26T10:46:17.267Z,29.07
2022-08-26T10:48:49.870Z,29.05
2022-08-26T10:51:25.424Z,28.72
2022-08-26T10:53:58.327Z,29.06
2022-08-26T10:56:36.373Z,29.06
2022-08-26T10:59:10.270Z,28.60
2022-08-26T11:01:51.034Z,27.92
2022-08-26T11:04:29.750Z,28.11
2022-08-26T11:07:36.568Z,27.79
2022-08-26T11:10:08.834Z,28.36
2022-08-26T11:12:59.387Z,28.23
2022-08-26T11:16:01.723Z,28.67
2022-08-26T11:18:44.509Z,28.34
2022-08-26T11:22:07.635Z,28.61
2022-08-26T11:25:11.941Z,28.94
2022-08-26T11:28:06.988Z,28.94
2022-08-26T11:30:43.453Z,28.89
2022-08-26T11:33:56.350Z,28.99
2022-08-26T11:36:59.371Z,28.99
2022-08-26T11:39:33.404Z,29.30
2022-08-26T11:42:20.174Z,29.32
2022-08-26T11:44:49.857Z,29.61
2022-08-26T11:47:29.397Z,29.55
2022-08-26T11:50:13.009Z,29.78
2022-08-26T11:52:44.784Z,29.69
2022-08-26T11:55:16.644Z,29.88
2022-08-26T11:57:53.325Z,30.07
2022-08-26T12:00:25.256Z,30.07
2022-08-26T12:02:55.234Z,30.24
2022-08-26T12:05:31.374Z,30.21
2022-08-26T12:08:20.227Z,29.79
2022-08-26T12:11:16.875Z,29.82
2022-08-26T12:13:56.823Z,30.02
2022-08-26T12:16:28.389Z,30.36
2022-08-26T12:18:58.835Z,30.57
2022-08-26T12:21:34.657Z,30.32
2022-08-26T12:24:08.151Z,29.99
2022-08-26T12:26:38.225Z,30.20
2022-08-26T12:29:20.381Z,30.16
2022-08-26T12:32:09.699Z,30.02
2022-08-26T12:34:38.437Z,30.11
2022-08-26T12:37:07.909Z,30.55
2022-08-26T12:39:40.258Z,30.50
2022-08-26T12:42:24.518Z,31.12
2022-08-26T12:45:01.090Z,31.04
2022-08-26T12:47:42.156Z,30.95
2022-08-26T12:50:19.456Z,30.66
2022-08-26T12:52:56.034Z,30.71
2022-08-26T12:55:29.071Z,30.79
2022-08-26T12:58:29.029Z,30.65
2022-08-26T13:01:23.861Z,30.51
2022-08-26T13:03:54.208Z,30.40
2022-08-26T13:06:37.107Z,30.36
2022-08-26T13:09:33.742Z,30.30
2022-08-26T13:12:13.073Z,30.47
2022-08-26T13:14:43.251Z,30.21
2022-08-26T13:17:13.003Z,29.94
2022-08-26T13:19:43.043Z,29.86
2022-08-26T13:22:14.508Z,30.10
2022-08-26T13:24:44.658Z,29.81
2022-08-26T13:27:18.069Z,29.94
2022-08-26T13:29:51.392Z,29.39
2022-08-26T13:32:27.272Z,29.83
2022-08-26T13:34:58.246Z,30.19
2022-08-26T13:37:34.392Z,30.16
2022-08-26T13:40:06.310Z,29.88
2022-08-26T13:42:36.785Z,29.47
2022-08-26T13:45:18.010Z,29.45
2022-08-26T13:47:46.717Z,29.58
2022-08-26T13:50:15.181Z,29.82
2022-08-26T13:52:43.767Z,30.23
2022-08-26T13:55:12.287Z,30.43
2022-08-26T13:57:42.267Z,30.11
2022-08-26T14:00:12.061Z,29.37
2022-08-26T14:02:41.815Z,29.62
2022-08-26T14:05:11.945Z,28.96
2022-08-26T14:07:42.526Z,29.61
2022-08-26T14:10:12.145Z,29.72
2022-08-26T14:12:42.422Z,29.92
2022-08-26T14:15:12.709Z,29.81
2022-08-26T14:17:43.451Z,30.39
2022-08-26T14:20:14.315Z,30.39
2022-08-26T14:23:03.500Z,30.69
2022-08-26T14:25:33.890Z,30.94
2022-08-26T14:28:05.401Z,30.95
2022-08-26T14:30:34.332Z,30.78
2022-08-26T14:33:03.297Z,30.53
2022-08-26T14:35:32.390Z,30.77
2022-08-26T14:38:01.200Z,31.05
2022-08-26T14:40:34.028Z,31.25
2022-08-26T14:43:09.851Z,31.38
2022-08-26T14:48:11.129Z,31.06
2022-08-26T14:50:39.759Z,31.14
2022-08-26T14:53:25.832Z,31.19
2022-08-26T14:55:56.348Z,30.17
2022-08-26T14:58:26.260Z,30.50
2022-08-26T15:01:04.363Z,30.71
2022-08-26T15:03:34.886Z,30.55
2022-08-26T15:06:04.592Z,30.77
2022-08-26T15:08:36.852Z,30.65
2022-08-26T15:11:06.779Z,31.17
2022-08-26T15:13:37.581Z,31.29
2022-08-26T15:16:06.244Z,31.28
2022-08-26T15:18:35.580Z,30.67
2022-08-26T15:21:05.016Z,30.63
2022-08-26T15:23:34.086Z,30.73
2022-08-26T15:26:02.710Z,30.70
2022-08-26T15:28:31.572Z,30.92
2022-08-26T15:31:01.404Z,30.74
2022-08-26T15:33:30.177Z,30.85
2022-08-26T15:36:01.386Z,31.04
2022-08-26T15:38:31.404Z,31.05
2022-08-26T15:41:02.940Z,31.09
2022-08-26T15:43:31.699Z,30.78
2022-08-26T15:46:01.785Z,30.38
2022-08-26T15:48:31.389Z,30.96
2022-08-26T15:51:02.294Z,30.94
2022-08-26T15:53:33.782Z,30.88
2022-08-26T15:56:04.596Z,31.01
2022-08-26T15:58:33.401Z,30.97
2022-08-26T16:01:06.799Z,30.38
2022-08-26T16:03:35.974Z,30.23
2022-08-26T16:06:04.959Z,29.43
2022-08-26T16:08:36.375Z,28.97
2022-08-26T16:11:10.420Z,28.70
2022-08-26T16:13:40.449Z,28.42
2022-08-26T16:16:12.117Z,28.02
2022-08-26T16:18:42.181Z,27.82
2022-08-26T16:21:16.814Z,27.45
2022-08-26T16:23:46.651Z,27.68
2022-08-26T16:26:17.009Z,27.58
2022-08-26T16:28:45.838Z,27.54
2022-08-26T16:31:16.323Z,27.43
2022-08-26T16:33:44.813Z,27.16
2022-08-26T16:36:14.128Z,26.57
2022-08-26T16:38:43.318Z,26.82
2022-08-26T16:41:11.973Z,26.84
2022-08-26T16:43:40.526Z,26.61
2022-08-26T16:46:11.420Z,26.80
2022-08-26T16:48:42.291Z,26.86
2022-08-26T16:51:13.306Z,25.79
2022-08-26T16:53:42.192Z,26.80
2022-08-26T16:56:14.959Z,26.63
2022-08-26T16:58:43.769Z,26.60
2022-08-26T17:01:12.400Z,25.84
2022-08-26T17:03:42.170Z,25.42
2022-08-26T17:06:11.135Z,25.56
2022-08-26T17:08:40.059Z,25.13
2022-08-26T17:11:09.933Z,25.10
2022-08-26T17:13:39.734Z,25.01
2022-08-26T17:16:11.393Z,25.03
2022-08-26T17:18:42.649Z,24.86
2022-08-26T17:21:14.185Z,24.60
2022-08-26T17:23:47.185Z,24.55
2022-08-26T17:26:16.927Z,24.40
2022-08-26T17:28:46.781Z,24.11
2022-08-26T17:31:16.174Z,23.78
2022-08-26T17:33:53.372Z,23.80
2022-08-26T17:36:27.967Z,23.77
2022-08-26T17:38:57.523Z,23.85
2022-08-26T17:41:26.487Z,23.78
2022-08-26T17:43:55.518Z,23.48
2022-08-26T17:46:24.763Z,23.20
2022-08-26T17:48:54.720Z,23.26
2022-08-26T17:51:23.656Z,23.18
2022-08-26T17:53:52.971Z,23.04
2022-08-26T17:56:32.333Z,23.20
2022-08-26T17:59:02.876Z,23.26
2022-08-26T18:01:33.051Z,23.19
2022-08-26T18:04:03.981Z,23.07
2022-08-26T18:06:34.456Z,22.92
2022-08-26T18:09:05.196Z,22.86
2022-08-26T18:11:35.837Z,22.86
2022-08-26T18:14:05.841Z,22.68
2022-08-26T18:16:38.723Z,22.58
2022-08-26T18:19:16.129Z,22.47
2022-08-26T18:21:45.557Z,22.27
2022-08-26T18:24:15.921Z,22.10
2022-08-26T18:26:53.268Z,21.98
2022-08-26T18:29:25.993Z,22.20
2022-08-26T18:31:54.991Z,22.22
2022-08-26T18:34:25.024Z,22.20
2022-08-26T18:37:00.292Z,21.98
2022-08-26T18:39:29.069Z,22.09
2022-08-26T18:41:57.796Z,22.06
2022-08-26T18:44:27.484Z,21.98
2022-08-26T18:46:56.201Z,21.66
2022-08-26T18:49:26.308Z,21.54
2022-08-26T18:51:54.947Z,21.59
2022-08-26T18:54:23.692Z,21.58
2022-08-26T18:56:52.343Z,21.36
2022-08-26T18:59:30.274Z,21.44
2022-08-26T19:01:59.680Z,21.42
2022-08-26T19:04:29.675Z,21.40
2022-08-26T19:06:58.368Z,21.44
2022-08-26T19:09:27.770Z,21.34
2022-08-26T19:14:25.184Z,21.40
2022-08-26T19:16:53.798Z,21.07
2022-08-26T19:19:24.013Z,21.16
2022-08-26T19:21:54.871Z,21.16
2022-08-26T19:24:27.300Z,21.06
2022-08-26T19:26:59.297Z,21.04
2022-08-26T19:29:29.758Z,21.06
2022-08-26T19:31:58.892Z,20.98
2022-08-26T19:34:29.633Z,20.82
2022-08-26T19:37:05.627Z,20.89
2022-08-26T19:39:52.630Z,20.88
2022-08-26T19:42:21.112Z,20.77
2022-08-26T19:45:07.271Z,20.77
2022-08-26T19:47:40.311Z,20.76
2022-08-26T19:50:13.018Z,20.82
2022-08-26T19:52:44.069Z,20.90
2022-08-26T19:55:14.435Z,20.98
2022-08-26T19:57:43.480Z,20.98
2022-08-26T20:00:14.994Z,21.16
2022-08-26T20:02:44.321Z,21.26
2022-08-26T20:05:14.151Z,21.26
2022-08-26T20:07:44.339Z,21.30
2022-08-26T20:10:14.221Z,21.31
2022-08-26T20:12:43.198Z,21.12
2022-08-26T20:15:14.162Z,21.12
2022-08-26T20:17:42.780Z,21.17
2022-08-26T20:20:33.043Z,21.02
2022-08-26T20:23:05.533Z,21.04
2022-08-26T20:25:35.061Z,20.92
2022-08-26T20:28:03.986Z,20.82
2022-08-26T20:30:32.727Z,20.76
2022-08-26T20:33:01.413Z,20.96
2022-08-26T20:35:29.974Z,20.97
2022-08-26T20:38:02.784Z,21.05
2022-08-26T20:40:33.712Z,21.17
2022-08-26T20:43:02.302Z,21.07
2022-08-26T20:45:30.861Z,21.25
2022-08-26T20:47:59.566Z,21.29
2022-08-26T20:50:28.273Z,21.25
2022-08-26T20:52:56.772Z,21.13
2022-08-26T20:55:25.921Z,21.21
2022-08-26T20:57:55.828Z,20.53
2022-08-26T21:00:28.857Z,21.13
2022-08-26T21:02:57.774Z,21.16
2022-08-26T21:05:26.388Z,21.12
2022-08-26T21:07:54.842Z,20.98
2022-08-26T21:10:23.624Z,21.04
2022-08-26T21:12:52.190Z,20.90
2022-08-26T21:15:22.392Z,20.92
2022-08-26T21:17:51.289Z,20.83
2022-08-26T21:20:20.782Z,20.65
2022-08-26T21:22:49.464Z,20.60
2022-08-26T21:25:17.993Z,20.50
2022-08-26T21:27:46.497Z,20.64
2022-08-26T21:30:16.876Z,20.68
2022-08-26T21:32:46.716Z,20.63
2022-08-26T21:35:15.322Z,20.77
2022-08-26T21:37:43.779Z,20.79
2022-08-26T21:40:12.930Z,20.80
2022-08-26T21:42:41.593Z,20.79
2022-08-26T21:45:11.067Z,20.83
2022-08-26T21:47:39.710Z,20.80
2022-08-26T21:50:10.409Z,20.75
2022-08-26T21:52:39.559Z,20.57
2022-08-26T21:55:11.720Z,20.82
2022-08-26T21:57:40.974Z,20.64
2022-08-26T22:00:13.328Z,20.72
2022-08-26T22:02:41.874Z,20.72
2022-08-26T22:05:12.187Z,20.73
2022-08-26T22:07:40.793Z,19.74
2022-08-26T22:10:10.085Z,20.64
2022-08-26T22:12:38.913Z,20.50
2022-08-26T22:15:08.945Z,20.60
2022-08-26T22:17:37.959Z,20.40
2022-08-26T22:20:06.918Z,20.44
2022-08-26T22:22:46.317Z,20.44
2022-08-26T22:25:15.103Z,20.48
2022-08-26T22:27:43.568Z,20.41
2022-08-26T22:30:13.965Z,19.27
2022-08-26T22:32:44.048Z,20.33
2022-08-26T22:35:29.349Z,20.31
2022-08-26T22:38:00.244Z,20.36
2022-08-26T22:40:28.893Z,20.36
2022-08-26T22:43:00.211Z,20.22
2022-08-26T22:45:30.051Z,20.23
2022-08-26T22:47:58.599Z,20.01
2022-08-26T22:50:27.123Z,20.05
2022-08-26T22:52:55.904Z,20.05
2022-08-26T22:55:25.858Z,20.01
2022-08-26T22:57:54.391Z,19.87
2022-08-26T23:00:32.163Z,20.24
2022-08-26T23:03:01.285Z,20.28
2022-08-26T23:05:30.057Z,20.15
2022-08-26T23:07:58.578Z,20.17
2022-08-26T23:10:28.401Z,19.82
2022-08-26T23:12:57.559Z,19.70
2022-08-26T23:15:26.590Z,20.00
2022-08-26T23:17:58.645Z,19.98
2022-08-26T23:20:28.940Z,20.02
2022-08-26T23:22:58.351Z,19.99
2022-08-26T23:25:29.922Z,20.14
2022-08-26T23:27:59.521Z,20.04
2022-08-26T23:30:29.757Z,20.07
2022-08-26T23:32:58.305Z,20.06
2022-08-26T23:35:26.522Z,20.08
2022-08-26T23:37:55.196Z,19.94
2022-08-26T23:40:29.968Z,20.12
2022-08-26T23:42:59.871Z,20.16
2022-08-26T23:45:29.018Z,20.08
2022-08-26T23:47:57.779Z,19.97
2022-08-26T23:50:49.222Z,19.91
2022-08-26T23:53:19.693Z,19.77
2022-08-26T23:55:50.910Z,19.78
2022-08-26T23:58:21.246Z,19.83
